createdAt,value
2018-08-09T00:01:43.084Z,100788.45
2018-08-09T00:04:12.703Z,100783.61
2018-08-09T00:06:42.730Z,100783.85
2018-08-09T00:09:13.133Z,100777.27
2018-08-09T00:11:42.873Z,100774.39
2018-08-09T00:14:13.022Z,100785.59
2018-08-09T00:16:42.887Z,100779.49
2018-08-09T00:19:12.510Z,100776.42
2018-08-09T00:21:42.942Z,100773.48
2018-08-09T00:24:12.658Z,100769.91
2018-08-09T00:26:42.890Z,100764.39
2018-08-09T00:29:12.472Z,100758.84
2018-08-09T00:31:42.919Z,100765.42
2018-08-09T00:34:12.623Z,100769.28
2018-08-09T00:36:43.024Z,100773.81
2018-08-09T00:39:13.751Z,100770.02
2018-08-09T00:41:44.278Z,100770.39
2018-08-09T00:44:13.736Z,100775.79
2018-08-09T00:46:43.605Z,100773.73
2018-08-09T00:49:13.379Z,100775.06
2018-08-09T00:51:43.685Z,100764.50
2018-08-09T00:54:13.153Z,100776.02
2018-08-09T00:56:43.024Z,100773.27
2018-08-09T00:59:12.796Z,100774.96
2018-08-09T01:01:43.125Z,100777.14
2018-08-09T01:04:12.822Z,100769.28
2018-08-09T01:06:42.900Z,100769.84
2018-08-09T01:09:15.324Z,100767.74
2018-08-09T01:11:45.554Z,100772.56
2018-08-09T01:14:15.194Z,100761.58
2018-08-09T01:16:44.881Z,100759.34
2018-08-09T01:19:14.491Z,100756.62
2018-08-09T01:21:44.291Z,100751.14
2018-08-09T01:24:13.851Z,100746.47
2018-08-09T01:26:43.552Z,100737.66
2018-08-09T01:29:13.082Z,100739.95
2018-08-09T01:31:43.017Z,100743.13
2018-08-09T01:34:12.595Z,100747.34
2018-08-09T01:36:43.618Z,100745.70
2018-08-09T01:39:14.015Z,100737.31
2018-08-09T01:43:01.571Z,100742.56
2018-08-09T01:45:31.070Z,100747.06
2018-08-09T01:48:01.014Z,100739.34
2018-08-09T01:50:31.044Z,100739.83
2018-08-09T01:53:00.804Z,100732.45
2018-08-09T01:55:30.653Z,100730.92
2018-08-09T01:58:00.864Z,100727.89
2018-08-09T02:00:30.300Z,100727.14
2018-08-09T02:03:00.041Z,100732.66
2018-08-09T02:05:29.812Z,100722.84
2018-08-09T02:07:59.542Z,100723.45
2018-08-09T02:10:29.354Z,100729.30
2018-08-09T02:12:58.931Z,100739.19
2018-08-09T02:15:28.410Z,100731.72
2018-08-09T02:17:57.915Z,100721.56
2018-08-09T02:20:27.417Z,100730.17
2018-08-09T02:22:57.216Z,100723.61
2018-08-09T02:25:27.287Z,100714.44
2018-08-09T02:28:00.652Z,100715.47
2018-08-09T02:30:30.397Z,100710.84
2018-08-09T02:33:00.159Z,100704.53
2018-08-09T02:35:29.809Z,100703.02
2018-08-09T02:37:59.631Z,100704.83
2018-08-09T02:40:29.289Z,100699.52
2018-08-09T02:42:59.129Z,100704.53
2018-08-09T02:45:28.802Z,100695.02
2018-08-09T02:47:58.779Z,100691.48
2018-08-09T02:50:28.296Z,100692.33
2018-08-09T02:52:58.076Z,100691.04
2018-08-09T02:55:28.259Z,100695.17
2018-08-09T02:57:58.151Z,100700.43
2018-08-09T03:00:27.689Z,100711.12
2018-08-09T03:02:57.474Z,100703.88
2018-08-09T03:05:27.169Z,100705.74
2018-08-09T03:07:57.294Z,100710.45
2018-08-09T03:10:27.022Z,100705.74
2018-08-09T03:12:56.506Z,100700.70
2018-08-09T03:15:26.158Z,100695.33
2018-08-09T03:17:55.964Z,100683.16
2018-08-09T03:20:25.453Z,100676.14
2018-08-09T03:22:55.146Z,100682.09
2018-08-09T03:25:24.921Z,100676.30
2018-08-09T03:27:54.561Z,100672.64
2018-08-09T03:30:24.672Z,100672.85
2018-08-09T03:32:54.175Z,100668.26
2018-08-09T03:35:24.069Z,100665.88
2018-08-09T03:37:53.835Z,100660.20
2018-08-09T03:40:23.479Z,100663.70
2018-08-09T03:42:53.313Z,100658.72
2018-08-09T03:45:22.758Z,100664.58
2018-08-09T03:47:52.493Z,100668.47
2018-08-09T03:50:22.211Z,100670.64
2018-08-09T03:52:52.059Z,100675.35
2018-08-09T03:55:21.833Z,100696.88
2018-08-09T03:57:51.518Z,100691.55
2018-08-09T04:00:21.296Z,100696.23
2018-08-09T04:02:51.202Z,100697.63
2018-08-09T04:05:21.210Z,100686.20
2018-08-09T04:07:51.010Z,100678.93
2018-08-09T04:10:20.744Z,100667.90
2018-08-09T04:12:50.622Z,100669.81
2018-08-09T04:15:20.812Z,100679.52
2018-08-09T04:17:50.943Z,100688.08
2018-08-09T04:20:20.664Z,100688.27
2018-08-09T04:22:50.492Z,100693.38
2018-08-09T04:25:19.946Z,100696.06
2018-08-09T04:27:49.832Z,100692.93
2018-08-09T04:30:19.461Z,100687.87
2018-08-09T04:32:49.668Z,100681.61
2018-08-09T04:35:19.398Z,100682.16
2018-08-09T04:37:50.062Z,100684.41
2018-08-09T04:40:19.695Z,100693.92
2018-08-09T04:42:49.671Z,100690.90
2018-08-09T04:45:19.544Z,100694.18
2018-08-09T04:47:49.285Z,100697.86
2018-08-09T04:50:18.859Z,100702.44
2018-08-09T04:52:48.988Z,100699.78
2018-08-09T04:55:18.743Z,100696.20
2018-08-09T04:57:48.548Z,100686.55
2018-08-09T05:00:18.157Z,100677.27
2018-08-09T05:02:47.974Z,100678.08
2018-08-09T05:05:17.795Z,100679.84
2018-08-09T05:07:47.520Z,100677.73
2018-08-09T05:10:17.316Z,100673.08
2018-08-09T05:12:47.733Z,100657.64
2018-08-09T05:15:17.802Z,100654.13
2018-08-09T05:17:47.726Z,100657.55
2018-08-09T05:20:17.609Z,100657.95
2018-08-09T05:22:47.336Z,100663.33
2018-08-09T05:25:17.125Z,100668.64
2018-08-09T05:27:46.982Z,100663.84
2018-08-09T05:30:16.720Z,100654.84
2018-08-09T05:32:46.749Z,100659.47
2018-08-09T05:35:16.531Z,100664.08
2018-08-09T05:37:46.002Z,100659.25
2018-08-09T05:40:15.779Z,100638.02
2018-08-09T05:42:45.647Z,100640.45
2018-08-09T05:45:15.343Z,100641.81
2018-08-09T05:47:44.965Z,100646.08
2018-08-09T05:50:14.998Z,100638.16
2018-08-09T05:52:44.887Z,100636.42
2018-08-09T05:55:14.856Z,100639.87
2018-08-09T05:57:44.607Z,100640.78
2018-08-09T06:00:14.538Z,100641.77
2018-08-09T06:02:45.123Z,100642.47
2018-08-09T06:05:15.091Z,100637.79
2018-08-09T06:07:44.825Z,100631.84
2018-08-09T06:10:14.787Z,100625.90
2018-08-09T06:12:44.442Z,100613.73
2018-08-09T06:15:14.410Z,100600.52
2018-08-09T06:17:44.239Z,100612.08
2018-08-09T06:20:14.133Z,100616.00
2018-08-09T06:22:44.089Z,100620.68
2018-08-09T06:25:14.065Z,100612.77
2018-08-09T06:27:44.630Z,100614.31
2018-08-09T06:30:14.415Z,100620.53
2018-08-09T06:32:44.295Z,100618.14
2018-08-09T06:35:13.833Z,100615.64
2018-08-09T06:37:43.861Z,100606.28
2018-08-09T06:40:15.020Z,100598.20
2018-08-09T06:42:45.384Z,100601.58
2018-08-09T06:45:15.745Z,100609.18
2018-08-09T06:47:45.641Z,100608.84
2018-08-09T06:50:15.627Z,100600.59
2018-08-09T06:52:45.634Z,100601.17
2018-08-09T06:55:16.019Z,100604.73
2018-08-09T06:57:46.263Z,100598.44
2018-08-09T07:00:16.446Z,100601.03
2018-08-09T07:02:46.054Z,100599.27
2018-08-09T07:05:15.980Z,100605.28
2018-08-09T07:07:45.986Z,100593.63
2018-08-09T07:10:16.024Z,100585.06
2018-08-09T07:12:45.830Z,100576.81
2018-08-09T07:15:15.875Z,100570.80
2018-08-09T07:17:45.594Z,100568.55
2018-08-09T07:20:15.338Z,100560.02
2018-08-09T07:22:45.390Z,100556.88
2018-08-09T07:25:15.404Z,100568.12
2018-08-09T07:27:45.667Z,100566.99
2018-08-09T07:30:15.514Z,100574.53
2018-08-09T07:32:45.657Z,100584.36
2018-08-09T07:35:15.341Z,100598.67
2018-08-09T07:37:45.164Z,100599.11
2018-08-09T07:40:15.238Z,100589.39
2018-08-09T07:42:45.304Z,100581.77
2018-08-09T07:45:15.668Z,100578.91
2018-08-09T07:47:45.769Z,100567.43
2018-08-09T07:50:15.821Z,100590.11
2018-08-09T07:52:45.872Z,100582.89
2018-08-09T07:55:15.420Z,100564.05
2018-08-09T07:57:45.272Z,100559.57
2018-08-09T08:00:15.198Z,100550.40
2018-08-09T08:02:45.034Z,100547.55
2018-08-09T08:05:14.875Z,100538.34
2018-08-09T08:07:45.264Z,100531.89
2018-08-09T08:10:15.375Z,100533.77
2018-08-09T08:12:48.455Z,100531.36
2018-08-09T08:15:18.310Z,100542.00
2018-08-09T08:17:48.512Z,100533.28
2018-08-09T08:20:18.058Z,100525.42
2018-08-09T08:22:48.419Z,100529.83
2018-08-09T08:25:18.692Z,100529.20
2018-08-09T08:27:48.999Z,100522.98
2018-08-09T08:30:18.662Z,100521.08
2018-08-09T08:32:48.417Z,100516.73
2018-08-09T08:35:18.078Z,100511.30
2018-08-09T08:37:48.322Z,100514.74
2018-08-09T08:40:18.438Z,100506.92
2018-08-09T08:42:48.469Z,100500.27
2018-08-09T08:45:19.158Z,100498.95
2018-08-09T08:47:49.091Z,100489.74
2018-08-09T08:50:18.940Z,100476.50
2018-08-09T08:52:49.152Z,100469.52
2018-08-09T08:55:19.296Z,100456.70
2018-08-09T08:57:49.430Z,100437.30
2018-08-09T09:00:19.597Z,100423.44
2018-08-09T09:02:49.186Z,100421.84
2018-08-09T09:05:18.993Z,100417.19
2018-08-09T09:07:48.797Z,100408.89
2018-08-09T09:10:18.301Z,100415.11
2018-08-09T09:12:47.876Z,100422.47
2018-08-09T09:15:17.682Z,100422.11
2018-08-09T09:17:47.847Z,100422.61
2018-08-09T09:20:18.155Z,100420.61
2018-08-09T09:22:48.268Z,100415.42
2018-08-09T09:25:18.037Z,100422.59
2018-08-09T09:27:48.155Z,100424.94
2018-08-09T09:30:18.819Z,100427.59
2018-08-09T09:32:48.410Z,100416.23
2018-08-09T09:35:18.188Z,100407.61
2018-08-09T09:37:48.012Z,100407.47
2018-08-09T09:40:17.941Z,100401.84
2018-08-09T09:42:47.700Z,100397.55
2018-08-09T09:45:17.813Z,100386.31
2018-08-09T09:47:47.588Z,100380.84
2018-08-09T09:50:17.647Z,100367.02
2018-08-09T09:52:47.551Z,100352.81
2018-08-09T09:55:17.802Z,100344.95
2018-08-09T09:57:47.895Z,100336.81
2018-08-09T10:00:23.089Z,100322.02
2018-08-09T10:02:52.822Z,100315.16
2018-08-09T10:05:22.354Z,100311.53
2018-08-09T10:07:52.357Z,100297.00
2018-08-09T10:10:22.192Z,100293.27
2018-08-09T10:12:52.510Z,100289.07
2018-08-09T10:15:22.597Z,100283.63
2018-08-09T10:17:52.882Z,100272.25
2018-08-09T10:20:23.058Z,100262.02
2018-08-09T10:22:52.798Z,100260.87
2018-08-09T10:25:22.937Z,100258.45
2018-08-09T10:27:52.571Z,100259.14
2018-08-09T10:30:22.505Z,100251.05
2018-08-09T10:32:52.267Z,100248.69
2018-08-09T10:35:21.981Z,100242.63
2018-08-09T10:37:51.899Z,100237.85
2018-08-09T10:40:21.777Z,100231.93
2018-08-09T10:42:51.569Z,100224.87
2018-08-09T10:45:21.099Z,100216.84
2018-08-09T10:47:51.521Z,100217.23
2018-08-09T10:50:21.634Z,100220.26
2018-08-09T10:52:51.561Z,100223.63
2018-08-09T10:55:21.507Z,100207.30
2018-08-09T10:57:50.998Z,100198.84
2018-08-09T11:00:20.559Z,100184.10
2018-08-09T11:02:50.558Z,100175.57
2018-08-09T11:05:21.027Z,100168.47
2018-08-09T11:07:51.096Z,100155.52
2018-08-09T11:10:20.925Z,100159.19
2018-08-09T11:12:50.481Z,100156.98
2018-08-09T11:15:20.435Z,100148.32
2018-08-09T11:17:50.664Z,100142.39
2018-08-09T11:20:20.724Z,100140.74
2018-08-09T11:22:50.695Z,100130.72
2018-08-09T11:25:20.794Z,100125.88
2018-08-09T11:27:50.393Z,100114.49
2018-08-09T11:30:20.217Z,100107.55
2018-08-09T11:32:50.252Z,100095.34
2018-08-09T11:35:19.908Z,100077.05
2018-08-09T11:37:49.662Z,100083.73
2018-08-09T11:40:19.164Z,100073.35
2018-08-09T11:42:48.748Z,100069.98
2018-08-09T11:45:18.825Z,100055.41
2018-08-09T11:47:48.814Z,100044.08
2018-08-09T11:50:18.735Z,100030.19
2018-08-09T11:52:48.380Z,100016.44
2018-08-09T11:55:18.270Z,100020.02
2018-08-09T11:57:48.027Z,99994.56
2018-08-09T12:00:18.060Z,99988.14
2018-08-09T12:02:48.238Z,99983.59
2018-08-09T12:05:18.046Z,99979.23
2018-08-09T12:07:48.109Z,99977.90
2018-08-09T12:10:17.871Z,99976.44
2018-08-09T12:12:47.592Z,99952.09
2018-08-09T12:15:17.915Z,99957.45
2018-08-09T12:17:47.906Z,99945.55
2018-08-09T12:20:17.717Z,99942.16
2018-08-09T12:22:48.504Z,99936.12
2018-08-09T12:25:18.387Z,99923.91
2018-08-09T12:27:48.123Z,99923.69
2018-08-09T12:30:17.773Z,99905.97
2018-08-09T12:32:47.773Z,99903.50
2018-08-09T12:35:18.151Z,99893.23
2018-08-09T12:37:47.975Z,99893.66
2018-08-09T12:40:18.421Z,99895.97
2018-08-09T12:42:48.231Z,99897.50
2018-08-09T12:45:17.796Z,99906.64
2018-08-09T12:47:47.804Z,99899.40
2018-08-09T12:50:17.716Z,99887.83
2018-08-09T12:53:02.669Z,99893.50
2018-08-09T12:55:33.047Z,99899.30
2018-08-09T12:58:03.245Z,99887.89
2018-08-09T13:00:32.850Z,99884.78
2018-08-09T13:03:03.203Z,99874.02
2018-08-09T13:05:32.974Z,99869.84
2018-08-09T13:08:03.437Z,99869.42
2018-08-09T13:10:32.982Z,99856.05
2018-08-09T13:13:02.999Z,99851.30
2018-08-09T13:15:32.890Z,99849.08
2018-08-09T13:18:03.270Z,99870.13
2018-08-09T13:20:33.377Z,99859.12
2018-08-09T13:23:03.273Z,99850.45
2018-08-09T13:25:32.809Z,99850.61
2018-08-09T13:28:02.857Z,99844.16
2018-08-09T13:30:32.537Z,99855.00
2018-08-09T13:33:02.467Z,99845.33
2018-08-09T13:35:32.380Z,99839.14
2018-08-09T13:38:02.605Z,99848.95
2018-08-09T13:40:32.576Z,99849.29
2018-08-09T13:43:02.210Z,99859.06
2018-08-09T13:45:32.320Z,99869.56
2018-08-09T13:48:02.483Z,99895.52
2018-08-09T13:50:32.674Z,99961.52
2018-08-09T13:53:02.518Z,100033.08
2018-08-09T13:55:32.110Z,100057.61
2018-08-09T13:58:02.026Z,100042.52
2018-08-09T14:00:32.168Z,100020.61
2018-08-09T14:03:01.902Z,100029.70
2018-08-09T14:05:32.193Z,100034.55
2018-08-09T14:08:02.010Z,100036.78
2018-08-09T14:10:32.622Z,100059.49
2018-08-09T14:13:02.878Z,100059.91
2018-08-09T14:15:32.359Z,100057.73
2018-08-09T14:18:02.270Z,100042.41
2018-08-09T14:20:32.281Z,100037.14
2018-08-09T14:23:03.147Z,100065.41
2018-08-09T14:25:32.721Z,100073.64
2018-08-09T14:28:03.030Z,100074.28
2018-08-09T14:30:32.867Z,100072.81
2018-08-09T14:33:02.761Z,100070.30
2018-08-09T14:35:32.454Z,100065.80
2018-08-09T14:38:02.594Z,100047.98
2018-08-09T14:40:32.496Z,100053.31
2018-08-09T14:43:02.679Z,100058.80
2018-08-09T14:45:32.589Z,100074.67
2018-08-09T14:48:02.365Z,100071.19
2018-08-09T14:50:32.394Z,100071.52
2018-08-09T14:53:02.150Z,100067.67
2018-08-09T14:55:31.585Z,100068.66
2018-08-09T14:58:01.563Z,100068.36
2018-08-09T15:00:31.194Z,100063.01
2018-08-09T15:03:01.498Z,100068.30
2018-08-09T15:05:31.292Z,100057.00
2018-08-09T15:08:01.060Z,100056.69
2018-08-09T15:10:30.711Z,100057.31
2018-08-09T15:13:00.426Z,100076.62
2018-08-09T15:15:30.420Z,100066.63
2018-08-09T15:18:00.133Z,100065.81
2018-08-09T15:20:29.594Z,100055.32
2018-08-09T15:23:00.216Z,100043.63
2018-08-09T15:25:30.222Z,100049.81
2018-08-09T15:28:00.107Z,100054.47
2018-08-09T15:30:29.663Z,100046.48
2018-08-09T15:32:59.536Z,100048.36
2018-08-09T15:35:29.500Z,100050.01
2018-08-09T15:37:59.323Z,100044.69
2018-08-09T15:40:29.477Z,100043.52
2018-08-09T15:42:59.204Z,100040.02
2018-08-09T15:45:28.850Z,100033.66
2018-08-09T15:47:58.813Z,100029.98
2018-08-09T15:50:29.089Z,100021.45
2018-08-09T15:52:59.200Z,100027.45
2018-08-09T15:55:28.847Z,100037.78
2018-08-09T15:57:58.850Z,100038.25
2018-08-09T16:00:28.323Z,100039.77
2018-08-09T16:02:58.602Z,100030.63
2018-08-09T16:05:28.514Z,100042.14
2018-08-09T16:07:58.468Z,100036.95
2018-08-09T16:10:29.837Z,100029.25
2018-08-09T16:12:59.862Z,100032.95
2018-08-09T16:15:29.701Z,100034.29
2018-08-09T16:17:59.667Z,100030.97
2018-08-09T16:20:29.466Z,100029.08
2018-08-09T16:22:59.277Z,100020.45
2018-08-09T16:25:29.243Z,100019.27
2018-08-09T16:27:58.977Z,100026.26
2018-08-09T16:30:29.222Z,100022.28
2018-08-09T16:32:59.093Z,100014.43
2018-08-09T16:35:28.653Z,100016.27
2018-08-09T16:37:58.807Z,100008.88
2018-08-09T16:40:28.632Z,99995.87
2018-08-09T16:42:58.252Z,100000.14
2018-08-09T16:45:27.804Z,99993.50
2018-08-09T16:47:57.452Z,99994.23
2018-08-09T16:50:27.349Z,99988.85
2018-08-09T16:52:57.157Z,99987.70
2018-08-09T16:55:27.331Z,99988.55
2018-08-09T16:57:57.546Z,99986.52
2018-08-09T17:00:27.664Z,99987.33
2018-08-09T17:02:57.588Z,99993.66
2018-08-09T17:05:28.225Z,99988.66
2018-08-09T17:07:58.418Z,99990.00
2018-08-09T17:10:27.914Z,99996.83
2018-08-09T17:12:57.783Z,100003.84
2018-08-09T17:15:28.938Z,100005.98
2018-08-09T17:17:59.845Z,99999.16
2018-08-09T17:20:31.683Z,99993.97
2018-08-09T17:23:02.752Z,99999.30
2018-08-09T17:25:32.719Z,99998.92
2018-08-09T17:28:02.653Z,100001.24
2018-08-09T17:30:32.520Z,100003.91
2018-08-09T17:33:02.689Z,99998.38
2018-08-09T17:35:32.932Z,99989.71
2018-08-09T17:38:03.124Z,99988.98
2018-08-09T17:40:34.605Z,99986.50
2018-08-09T17:43:04.966Z,99991.34
2018-08-09T17:45:36.270Z,99994.22
2018-08-09T17:48:06.428Z,99988.34
2018-08-09T17:50:35.958Z,99980.63
2018-08-09T17:53:07.406Z,99982.80
2018-08-09T17:55:37.242Z,99990.31
2018-08-09T17:58:07.176Z,99998.33
2018-08-09T18:00:37.174Z,99998.86
2018-08-09T18:03:06.996Z,99997.05
2018-08-09T18:05:36.935Z,100015.39
2018-08-09T18:08:06.938Z,100011.88
2018-08-09T18:10:37.102Z,100019.78
2018-08-09T18:13:07.566Z,100034.85
2018-08-09T18:15:37.830Z,100035.16
2018-08-09T18:18:07.555Z,100027.03
2018-08-09T18:20:40.066Z,100030.84
2018-08-09T18:23:10.242Z,100027.00
2018-08-09T18:25:39.850Z,100035.88
2018-08-09T18:28:10.914Z,100035.91
2018-08-09T18:30:40.676Z,100030.57
2018-08-09T18:33:10.582Z,100046.93
2018-08-09T18:35:40.216Z,100045.59
2018-08-09T18:38:10.286Z,100068.63
2018-08-09T18:40:39.892Z,100076.81
2018-08-09T18:43:09.694Z,100107.34
2018-08-09T18:45:39.848Z,100108.52
2018-08-09T18:48:09.925Z,100137.68
2018-08-09T18:50:40.138Z,100152.71
2018-08-09T18:53:10.104Z,100142.84
2018-08-09T18:55:39.948Z,100149.58
2018-08-09T18:58:10.277Z,100159.23
2018-08-09T19:00:40.585Z,100177.33
2018-08-09T19:03:12.107Z,100187.18
2018-08-09T19:05:41.749Z,100196.97
2018-08-09T19:08:11.213Z,100204.96
2018-08-09T19:10:40.913Z,100211.33
2018-08-09T19:13:10.452Z,100216.96
2018-08-09T19:15:40.012Z,100234.94
2018-08-09T19:18:09.721Z,100236.22
2018-08-09T19:20:39.525Z,100245.86
2018-08-09T19:23:09.080Z,100248.13
2018-08-09T19:25:39.296Z,100270.20
2018-08-09T19:28:08.970Z,100274.67
2018-08-09T19:30:38.831Z,100280.38
2018-08-09T19:33:08.361Z,100284.55
2018-08-09T19:35:38.166Z,100285.49
2018-08-09T19:38:08.201Z,100293.31
2018-08-09T19:40:40.150Z,100292.39
2018-08-09T19:43:10.355Z,100292.70
2018-08-09T19:45:41.526Z,100289.84
2018-08-09T19:48:11.294Z,100291.72
2018-08-09T19:50:41.398Z,100286.56
2018-08-09T19:53:11.335Z,100289.28
2018-08-09T19:55:41.419Z,100305.25
2018-08-09T19:58:18.302Z,100295.86
2018-08-09T20:00:51.277Z,100304.08
2018-08-09T20:03:25.323Z,100301.26
2018-08-09T20:05:58.383Z,100295.39
2018-08-09T20:08:32.068Z,100298.88
2018-08-09T20:11:05.527Z,100310.68
2018-08-09T20:13:38.968Z,100315.86
2018-08-09T20:16:12.629Z,100315.45
2018-08-09T20:18:45.522Z,100314.37
2018-08-09T20:21:19.235Z,100317.03
2018-08-09T20:23:49.566Z,100327.84
2018-08-09T20:26:22.695Z,100329.46
2018-08-09T20:28:55.879Z,100335.92
2018-08-09T20:31:28.844Z,100332.04
2018-08-09T20:34:02.329Z,100338.33
2018-08-09T20:36:35.360Z,100343.59
2018-08-09T20:39:13.154Z,100335.71
2018-08-09T20:41:46.522Z,100340.57
2018-08-09T20:44:19.759Z,100340.28
2018-08-09T20:46:53.329Z,100359.88
2018-08-09T20:49:26.654Z,100357.57
2018-08-09T20:51:56.355Z,100362.98
2018-08-09T20:54:27.854Z,100372.97
2018-08-09T20:56:59.555Z,100377.69
2018-08-09T20:59:31.803Z,100369.82
2018-08-09T21:02:04.161Z,100374.34
2018-08-09T21:04:34.814Z,100384.38
2018-08-09T21:07:06.414Z,100379.02
2018-08-09T21:09:37.782Z,100374.28
2018-08-09T21:12:07.899Z,100377.67
2018-08-09T21:14:40.269Z,100393.34
2018-08-09T21:17:12.582Z,100400.59
2018-08-09T21:19:44.323Z,100413.47
2018-08-09T21:22:16.148Z,100425.02
2018-08-09T21:24:48.588Z,100423.70
2018-08-09T21:27:20.692Z,100434.89
2018-08-09T21:29:53.261Z,100444.19
2018-08-09T21:32:27.178Z,100434.36
2018-08-09T21:35:00.789Z,100437.33
2018-08-09T21:37:33.100Z,100450.89
2018-08-09T21:40:07.278Z,100454.96
2018-08-09T21:42:40.643Z,100469.70
2018-08-09T21:45:17.968Z,100460.91
2018-08-09T21:47:51.191Z,100480.19
2018-08-09T21:50:23.217Z,100470.39
2018-08-09T21:52:56.845Z,100489.36
2018-08-09T21:55:30.150Z,100494.40
2018-08-09T21:58:00.061Z,100499.13
2018-08-09T22:00:55.702Z,100518.92
2018-08-09T22:03:32.265Z,100525.98
2018-08-09T22:06:07.740Z,100536.08
2018-08-09T22:08:42.887Z,100556.01
2018-08-09T22:12:16.705Z,100553.44
2018-08-09T22:14:51.826Z,100546.70
2018-08-09T22:17:26.700Z,100558.07
2018-08-09T22:20:02.528Z,100567.86
2018-08-09T22:22:32.440Z,100567.84
2018-08-09T22:25:02.227Z,100580.20
2018-08-09T22:27:31.766Z,100586.80
2018-08-09T22:30:01.588Z,100591.61
2018-08-09T22:32:31.466Z,100599.23
2018-08-09T22:35:01.386Z,100588.52
2018-08-09T22:37:30.868Z,100611.05
2018-08-09T22:40:00.956Z,100616.11
2018-08-09T22:42:30.629Z,100613.25
2018-08-09T22:45:00.545Z,100617.95
2018-08-09T22:47:30.102Z,100624.43
2018-08-09T22:50:00.174Z,100630.79
2018-08-09T22:52:29.919Z,100643.48
2018-08-09T22:55:00.103Z,100633.00
2018-08-09T22:57:29.625Z,100657.64
2018-08-09T22:59:59.315Z,100660.75
2018-08-09T23:02:28.913Z,100659.36
2018-08-09T23:04:58.533Z,100658.04
2018-08-09T23:07:28.753Z,100652.62
2018-08-09T23:09:58.559Z,100670.31
2018-08-09T23:12:28.594Z,100679.34
2018-08-09T23:14:59.166Z,100672.48
2018-08-09T23:17:28.974Z,100686.19
2018-08-09T23:19:58.971Z,100697.38
2018-08-09T23:22:28.741Z,100694.97
2018-08-09T23:24:58.790Z,100713.72
2018-08-09T23:27:28.505Z,100711.58
2018-08-09T23:29:58.288Z,100721.80
2018-08-09T23:32:28.110Z,100722.10
2018-08-09T23:34:57.894Z,100724.08
2018-08-09T23:37:27.660Z,100744.37
2018-08-09T23:39:58.231Z,100750.30
2018-08-09T23:42:28.006Z,100757.12
2018-08-09T23:44:58.108Z,100770.02
2018-08-09T23:47:28.017Z,100779.02
2018-08-09T23:49:57.727Z,100769.80
2018-08-09T23:52:27.553Z,100778.72
2018-08-09T23:54:57.283Z,100784.25
2018-08-09T23:57:27.100Z,100793.92
2018-08-09T23:59:56.715Z,100801.00
